Pacific Dawn — 2AGH7 — position and weather

sailwx.info

Track history (hours):
 
Tides and Currents Weather Stations Pressure Air Temp Water Temp Dewpoint Dewpoint Depression Visibility Wind Speed Wind Dir Waves Ship Positions

Pacific Dawn

Last reported at 2018-Dec-12 12:00 UTC. Time now 2018-Dec-12 15:06 UTC.
Position S 18°00' E 166°18'.

Length 245 m; draft 8.3 m.

Type: Passenger vessel. MMSI: 235059368.

Wind from 120 at 18 knots

Barometer 1012.0 mb
Air temperature 24.5 ° C
Visibility: greater than 10.8 NM
Dewpoint 18.2 ° C
Water temperature 25.0 ° C

Date/timePositionNaut miles runAvg speedWind from/ knotsBaromVisibWave heightAir tempDewpointWater temp
2018-Dec-12 12:00S 18°00' E 166°18'265 5.6 120 / 181012.010.8 24.518.225.0
2018-Dec-10 12:52S 22°24' E 166°47'617.8
2018-Dec-10 12:30S 22°23' E 166°40'917.4
2018-Dec-10 12:00S 22°21' E 166°31'612.8
2018-Dec-10 11:30S 22°17' E 166°25'1 2.1
2018-Dec-10 11:00S 22°16' E 166°26'0 0.0
2018-Dec-10 10:30S 22°16' E 166°26'0 0.0
2018-Dec-10 10:00S 22°16' E 166°26'0 0.0
2018-Dec-10 09:30S 22°16' E 166°26'0 0.0
2018-Dec-10 09:00S 22°16' E 166°26'0 0.0
2018-Dec-10 08:30S 22°16' E 166°26'0 0.0
2018-Dec-10 08:00S 22°16' E 166°26'0 0.0
2018-Dec-10 07:30S 22°16' E 166°26'0 0.0
2018-Dec-10 07:01S 22°16' E 166°26'3 5.6
2018-Dec-10 06:30S 22°18' E 166°24'714.7
2018-Dec-10 06:00S 22°21' E 166°16'813.1
2018-Dec-10 05:25S 22°25' E 166°09'10316.1
2018-Dec-09 23:00S 23°00' E 164°24'17616.0 130 / 301012.410.8 24.521.524.0
2018-Dec-09 12:00S 24°00' E 161°24'21916.9 120 / 301014.510.8 23.520.424.0
2018-Dec-08 23:00S 25°12' E 157°36'24817.5 110 / 301014.210.8 24.021.825.0
2018-Dec-08 08:47S 26°41' E 153°18'415.3
2018-Dec-08 08:30S 26°42' E 153°14'711.2
2018-Dec-08 07:54S 26°48' E 153°11'513.4
2018-Dec-08 07:30S 26°54' E 153°11'917.3
2018-Dec-08 07:00S 27°01' E 153°15'817.0
2018-Dec-08 06:30S 27°08' E 153°21'816.6
2018-Dec-08 06:00S 27°16' E 153°17'714.4
2018-Dec-08 05:30S 27°20' E 153°11'510.3
2018-Dec-08 05:00S 27°25' E 153°09'4 7.5
2018-Dec-08 04:30S 27°27' E 153°05'1 1.9
2018-Dec-08 03:58S 27°26' E 153°04'0 0.0
2018-Dec-08 03:28S 27°26' E 153°04'0 0.0
2018-Dec-08 02:58S 27°26' E 153°04'0 0.0
2018-Dec-08 02:28S 27°26' E 153°04'0 0.0
2018-Dec-08 01:58S 27°26' E 153°04'0 0.0
2018-Dec-08 01:28S 27°26' E 153°04'0 0.0
2018-Dec-08 00:58S 27°26' E 153°04'0 0.0
2018-Dec-08 00:28S 27°26' E 153°04'0 0.0
2018-Dec-07 23:58S 27°26' E 153°04'0 0.0
2018-Dec-07 23:28S 27°26' E 153°04'0 0.0
2018-Dec-07 22:58S 27°26' E 153°04'0 0.0
2018-Dec-07 22:25S 27°26' E 153°04'0 0.0
2018-Dec-07 21:58S 27°26' E 153°04'0 0.0
2018-Dec-07 21:28S 27°26' E 153°04'0 0.0
2018-Dec-07 20:58S 27°26' E 153°04'0 0.0
2018-Dec-07 20:28S 27°26' E 153°04'0 0.0
2018-Dec-07 19:58S 27°26' E 153°04'2 5.1
2018-Dec-07 19:30S 27°26' E 153°07'3 6.6
2018-Dec-07 19:00S 27°24' E 153°09'5 9.3
2018-Dec-07 18:30S 27°20' E 153°12'714.8
2018-Dec-07 18:00S 27°15' E 153°18'816.2
2018-Dec-07 17:30S 27°07' E 153°21'815.7
2018-Dec-07 17:00S 27°02' E 153°15'815.7
2018-Dec-07 16:30S 26°54' E 153°11'813.1
2018-Dec-07 15:52S 26°46' E 153°10'3 9.1
2018-Dec-07 15:30S 26°43' E 153°11'36314.2
2018-Dec-06 14:00S 21°18' E 150°12'107 7.6 140 / 321010.6 5.4 24.023.328.0
2018-Dec-06 00:00S 20°12' E 148°42'72 7.2 160 / 231010.2 5.4 28.022.927.0
2018-Dec-05 14:00S 20°48' E 149°48'16814.0 130 / 121010.4 5.4 24.023.327.0
2018-Dec-05 02:00S 22°48' E 151°54'8517.1 140 / 171012.2 5.4 27.022.626.0
2018-Dec-04 21:00S 23°48' E 153°00'17016.7 130 / 171012.510.8 25.522.626.0
2018-Dec-04 10:47S 26°38' E 153°15'516.2
2018-Dec-04 10:30S 26°41' E 153°12'713.8
2018-Dec-04 09:59S 26°48' E 153°11'613.7
2018-Dec-04 09:30S 26°55' E 153°11'917.0
2018-Dec-04 09:00S 27°02' E 153°15'815.8
2018-Dec-04 08:30S 27°08' E 153°21'815.8
2018-Dec-04 08:00S 27°16' E 153°18'815.3
2018-Dec-04 07:30S 27°21' E 153°11'5 9.3
2018-Dec-04 07:00S 27°25' E 153°09'3 6.7
2018-Dec-04 06:30S 27°27' E 153°06'2 3.3
2018-Dec-04 06:00S 27°26' E 153°04'0 0.0
2018-Dec-04 05:29S 27°26' E 153°04'0 0.0
2018-Dec-04 04:59S 27°26' E 153°04'0 0.0
2018-Dec-04 04:29S 27°26' E 153°04'0 0.0
2018-Dec-04 03:59S 27°26' E 153°04'0 0.0
2018-Dec-04 03:29S 27°26' E 153°04'0 0.0
2018-Dec-04 02:59S 27°26' E 153°04'0 0.0
2018-Dec-04 02:29S 27°26' E 153°04'0 0.0
2018-Dec-04 01:59S 27°26' E 153°04'0 0.0
2018-Dec-04 01:29S 27°26' E 153°04'0 0.0
2018-Dec-04 00:59S 27°26' E 153°04'0 0.0
2018-Dec-04 00:29S 27°26' E 153°04'0 0.0
2018-Dec-03 23:59S 27°26' E 153°04'0 0.0
2018-Dec-03 23:29S 27°26' E 153°04'0 0.0
2018-Dec-03 22:59S 27°26' E 153°04'0 0.0
2018-Dec-03 22:29S 27°26' E 153°04'0 0.0
2018-Dec-03 21:59S 27°26' E 153°04'0 0.0
2018-Dec-03 21:29S 27°26' E 153°04'0 0.0
2018-Dec-03 20:59S 27°26' E 153°04'0 0.0
2018-Dec-03 20:29S 27°26' E 153°04'0 0.0
2018-Dec-03 19:59S 27°26' E 153°04'0 0.1
2018-Dec-03 19:30S 27°26' E 153°04'2 4.9
2018-Dec-03 19:01S 27°26' E 153°07'4 7.2
2018-Dec-03 18:30S 27°23' E 153°09'510.4
2018-Dec-03 18:00S 27°19' E 153°12'815.6
2018-Dec-03 17:30S 27°14' E 153°19'816.3
2018-Dec-03 17:00S 27°06' E 153°20'816.0
2018-Dec-03 16:31S 26°60' E 153°14'917.0
2018-Dec-03 16:01S 26°52' E 153°10'713.6
2018-Dec-03 15:30S 26°46' E 153°11'510.9
2018-Dec-03 15:01S 26°41' E 153°13'712.5
2018-Dec-03 14:28S 26°38' E 153°20'612.8
2018-Dec-03 14:01S 26°37' E 153°27'612.3
2018-Dec-03 13:31S 26°36' E 153°34'712.3
2018-Dec-03 12:57S 26°33' E 153°41'512.1
2018-Dec-03 12:30S 26°32' E 153°47'611.9
2018-Dec-03 12:01S 26°30' E 153°53'1212.1
2018-Dec-03 10:59S 26°26' E 154°06'612.0
2018-Dec-03 10:27S 26°24' E 154°13'1612.2
2018-Dec-03 09:09S 26°19' E 154°30'30 7.3
2018-Dec-03 05:02S 26°35' E 154°58'011.7
2018-Dec-03 05:00S 26°36' E 154°58'1411.6
2018-Dec-03 03:47S 26°50' E 154°58'411.8
2018-Dec-03 03:28S 26°54' E 154°58'1412.0
2018-Dec-03 02:20S 27°07' E 154°58'412.2
2018-Dec-03 01:58S 27°12' E 154°58'612.4
2018-Dec-03 01:30S 27°18' E 154°58'712.4
2018-Dec-03 00:56S 27°25' E 154°58'612.4
2018-Dec-03 00:28S 27°30' E 154°58'6411.3
2018-Dec-02 18:51S 28°34' E 154°58'411.4
2018-Dec-02 18:27S 28°39' E 154°58'4311.9
2018-Dec-02 14:50S 29°22' E 154°58'412.5
2018-Dec-02 14:30S 29°26' E 154°58'612.2
2018-Dec-02 14:01S 29°32' E 154°58'611.9
2018-Dec-02 13:30S 29°38' E 154°58'612.0
2018-Dec-02 13:00S 29°44' E 154°58'611.6
2018-Dec-02 12:31S 29°50' E 154°58'611.4
2018-Dec-02 12:01S 29°55' E 154°58'  
Track history (hours):
 
Tides and Currents Weather Stations Pressure Air Temp Water Temp Dewpoint Dewpoint Depression Visibility Wind Speed Wind Dir Waves Ship Positions

Pacific Dawn

Last reported at 2018-Dec-12 12:00 UTC. Time now 2018-Dec-12 15:06 UTC.
Position S 18°00' E 166°18'.

Length 245 m; draft 8.3 m.

Type: Passenger vessel. MMSI: 235059368.

Wind from 120 at 18 knots

Barometer 1012.0 mb
Air temperature 24.5 ° C
Visibility: greater than 10.8 NM
Dewpoint 18.2 ° C
Water temperature 25.0 ° C

Date/timePositionNaut miles runAvg speedWind from/ knotsBaromVisibWave heightAir tempDewpointWater temp
2018-Dec-12 12:00S 18°00' E 166°18'265 5.6 120 / 181012.010.8 24.518.225.0
2018-Dec-10 12:52S 22°24' E 166°47'617.8
2018-Dec-10 12:30S 22°23' E 166°40'917.4
2018-Dec-10 12:00S 22°21' E 166°31'612.8
2018-Dec-10 11:30S 22°17' E 166°25'1 2.1
2018-Dec-10 11:00S 22°16' E 166°26'0 0.0
2018-Dec-10 10:30S 22°16' E 166°26'0 0.0
2018-Dec-10 10:00S 22°16' E 166°26'0 0.0
2018-Dec-10 09:30S 22°16' E 166°26'0 0.0
2018-Dec-10 09:00S 22°16' E 166°26'0 0.0
2018-Dec-10 08:30S 22°16' E 166°26'0 0.0
2018-Dec-10 08:00S 22°16' E 166°26'0 0.0
2018-Dec-10 07:30S 22°16' E 166°26'0 0.0
2018-Dec-10 07:01S 22°16' E 166°26'3 5.6
2018-Dec-10 06:30S 22°18' E 166°24'714.7
2018-Dec-10 06:00S 22°21' E 166°16'813.1
2018-Dec-10 05:25S 22°25' E 166°09'10316.1
2018-Dec-09 23:00S 23°00' E 164°24'17616.0 130 / 301012.410.8 24.521.524.0
2018-Dec-09 12:00S 24°00' E 161°24'21916.9 120 / 301014.510.8 23.520.424.0
2018-Dec-08 23:00S 25°12' E 157°36'24817.5 110 / 301014.210.8 24.021.825.0
2018-Dec-08 08:47S 26°41' E 153°18'415.3
2018-Dec-08 08:30S 26°42' E 153°14'711.2
2018-Dec-08 07:54S 26°48' E 153°11'513.4
2018-Dec-08 07:30S 26°54' E 153°11'917.3
2018-Dec-08 07:00S 27°01' E 153°15'817.0
2018-Dec-08 06:30S 27°08' E 153°21'816.6
2018-Dec-08 06:00S 27°16' E 153°17'714.4
2018-Dec-08 05:30S 27°20' E 153°11'510.3
2018-Dec-08 05:00S 27°25' E 153°09'4 7.5
2018-Dec-08 04:30S 27°27' E 153°05'1 1.9
2018-Dec-08 03:58S 27°26' E 153°04'0 0.0
2018-Dec-08 03:28S 27°26' E 153°04'0 0.0
2018-Dec-08 02:58S 27°26' E 153°04'0 0.0
2018-Dec-08 02:28S 27°26' E 153°04'0 0.0
2018-Dec-08 01:58S 27°26' E 153°04'0 0.0
2018-Dec-08 01:28S 27°26' E 153°04'0 0.0
2018-Dec-08 00:58S 27°26' E 153°04'0 0.0
2018-Dec-08 00:28S 27°26' E 153°04'0 0.0
2018-Dec-07 23:58S 27°26' E 153°04'0 0.0
2018-Dec-07 23:28S 27°26' E 153°04'0 0.0
2018-Dec-07 22:58S 27°26' E 153°04'0 0.0
2018-Dec-07 22:25S 27°26' E 153°04'0 0.0
2018-Dec-07 21:58S 27°26' E 153°04'0 0.0
2018-Dec-07 21:28S 27°26' E 153°04'0 0.0
2018-Dec-07 20:58S 27°26' E 153°04'0 0.0
2018-Dec-07 20:28S 27°26' E 153°04'0 0.0
2018-Dec-07 19:58S 27°26' E 153°04'2 5.1
2018-Dec-07 19:30S 27°26' E 153°07'3 6.6
2018-Dec-07 19:00S 27°24' E 153°09'5 9.3
2018-Dec-07 18:30S 27°20' E 153°12'714.8
2018-Dec-07 18:00S 27°15' E 153°18'816.2
2018-Dec-07 17:30S 27°07' E 153°21'815.7
2018-Dec-07 17:00S 27°02' E 153°15'815.7
2018-Dec-07 16:30S 26°54' E 153°11'813.1
2018-Dec-07 15:52S 26°46' E 153°10'3 9.1
2018-Dec-07 15:30S 26°43' E 153°11'36314.2
2018-Dec-06 14:00S 21°18' E 150°12'107 7.6 140 / 321010.6 5.4 24.023.328.0
2018-Dec-06 00:00S 20°12' E 148°42'72 7.2 160 / 231010.2 5.4 28.022.927.0
2018-Dec-05 14:00S 20°48' E 149°48'16814.0 130 / 121010.4 5.4 24.023.327.0
2018-Dec-05 02:00S 22°48' E 151°54'8517.1 140 / 171012.2 5.4 27.022.626.0
2018-Dec-04 21:00S 23°48' E 153°00'17016.7 130 / 171012.510.8 25.522.626.0
2018-Dec-04 10:47S 26°38' E 153°15'516.2
2018-Dec-04 10:30S 26°41' E 153°12'713.8
2018-Dec-04 09:59S 26°48' E 153°11'613.7
2018-Dec-04 09:30S 26°55' E 153°11'917.0
2018-Dec-04 09:00S 27°02' E 153°15'815.8
2018-Dec-04 08:30S 27°08' E 153°21'815.8
2018-Dec-04 08:00S 27°16' E 153°18'815.3
2018-Dec-04 07:30S 27°21' E 153°11'5 9.3
2018-Dec-04 07:00S 27°25' E 153°09'3 6.7
2018-Dec-04 06:30S 27°27' E 153°06'2 3.3
2018-Dec-04 06:00S 27°26' E 153°04'0 0.0
2018-Dec-04 05:29S 27°26' E 153°04'0 0.0
2018-Dec-04 04:59S 27°26' E 153°04'0 0.0
2018-Dec-04 04:29S 27°26' E 153°04'0 0.0
2018-Dec-04 03:59S 27°26' E 153°04'0 0.0
2018-Dec-04 03:29S 27°26' E 153°04'0 0.0
2018-Dec-04 02:59S 27°26' E 153°04'0 0.0
2018-Dec-04 02:29S 27°26' E 153°04'0 0.0
2018-Dec-04 01:59S 27°26' E 153°04'0 0.0
2018-Dec-04 01:29S 27°26' E 153°04'0 0.0
2018-Dec-04 00:59S 27°26' E 153°04'0 0.0
2018-Dec-04 00:29S 27°26' E 153°04'0 0.0
2018-Dec-03 23:59S 27°26' E 153°04'0 0.0
2018-Dec-03 23:29S 27°26' E 153°04'0 0.0
2018-Dec-03 22:59S 27°26' E 153°04'0 0.0
2018-Dec-03 22:29S 27°26' E 153°04'0 0.0
2018-Dec-03 21:59S 27°26' E 153°04'0 0.0
2018-Dec-03 21:29S 27°26' E 153°04'0 0.0
2018-Dec-03 20:59S 27°26' E 153°04'0 0.0
2018-Dec-03 20:29S 27°26' E 153°04'0 0.0
2018-Dec-03 19:59S 27°26' E 153°04'0 0.1
2018-Dec-03 19:30S 27°26' E 153°04'2 4.9
2018-Dec-03 19:01S 27°26' E 153°07'4 7.2
2018-Dec-03 18:30S 27°23' E 153°09'510.4
2018-Dec-03 18:00S 27°19' E 153°12'815.6
2018-Dec-03 17:30S 27°14' E 153°19'816.3
2018-Dec-03 17:00S 27°06' E 153°20'816.0
2018-Dec-03 16:31S 26°60' E 153°14'917.0
2018-Dec-03 16:01S 26°52' E 153°10'713.6
2018-Dec-03 15:30S 26°46' E 153°11'510.9
2018-Dec-03 15:01S 26°41' E 153°13'712.5
2018-Dec-03 14:28S 26°38' E 153°20'612.8
2018-Dec-03 14:01S 26°37' E 153°27'612.3
2018-Dec-03 13:31S 26°36' E 153°34'712.3
2018-Dec-03 12:57S 26°33' E 153°41'512.1
2018-Dec-03 12:30S 26°32' E 153°47'611.9
2018-Dec-03 12:01S 26°30' E 153°53'1212.1
2018-Dec-03 10:59S 26°26' E 154°06'612.0
2018-Dec-03 10:27S 26°24' E 154°13'1612.2
2018-Dec-03 09:09S 26°19' E 154°30'30 7.3
2018-Dec-03 05:02S 26°35' E 154°58'011.7
2018-Dec-03 05:00S 26°36' E 154°58'1411.6
2018-Dec-03 03:47S 26°50' E 154°58'411.8
2018-Dec-03 03:28S 26°54' E 154°58'1412.0
2018-Dec-03 02:20S 27°07' E 154°58'412.2
2018-Dec-03 01:58S 27°12' E 154°58'612.4
2018-Dec-03 01:30S 27°18' E 154°58'712.4
2018-Dec-03 00:56S 27°25' E 154°58'612.4
2018-Dec-03 00:28S 27°30' E 154°58'6411.3
2018-Dec-02 18:51S 28°34' E 154°58'411.4
2018-Dec-02 18:27S 28°39' E 154°58'4311.9
2018-Dec-02 14:50S 29°22' E 154°58'412.5
2018-Dec-02 14:30S 29°26' E 154°58'612.2
2018-Dec-02 14:01S 29°32' E 154°58'611.9
2018-Dec-02 13:30S 29°38' E 154°58'612.0
2018-Dec-02 13:00S 29°44' E 154°58'611.6
2018-Dec-02 12:31S 29°50' E 154°58'611.4
2018-Dec-02 12:01S 29°55' E 154°58'  

Dump ship's entire track history